sensor_id;sensor_type;location;lat;lon;timestamp;P1;durP1;ratioP1;P2;durP2;ratioP2
7531;SDS011;3807;49.030;8.714;2023-04-24T00:01:11;1.07;;;0.90;;
7531;SDS011;3807;49.030;8.714;2023-04-24T00:03:37;2.37;;;1.07;;
7531;SDS011;3807;49.030;8.714;2023-04-24T00:06:03;2.77;;;1.10;;
7531;SDS011;3807;49.030;8.714;2023-04-24T00:08:30;1.60;;;0.97;;
7531;SDS011;3807;49.030;8.714;2023-04-24T00:10:55;2.37;;;0.90;;
7531;SDS011;3807;49.030;8.714;2023-04-24T00:13:21;3.33;;;0.80;;
7531;SDS011;3807;49.030;8.714;2023-04-24T00:15:46;4.80;;;0.90;;
7531;SDS011;3807;49.030;8.714;2023-04-24T00:18:12;0.73;;;0.70;;
7531;SDS011;3807;49.030;8.714;2023-04-24T00:20:37;2.50;;;0.93;;
7531;SDS011;3807;49.030;8.714;2023-04-24T00:23:03;1.90;;;0.97;;
7531;SDS011;3807;49.030;8.714;2023-04-24T00:25:28;1.30;;;0.77;;
7531;SDS011;3807;49.030;8.714;2023-04-24T00:27:53;4.30;;;1.10;;
7531;SDS011;3807;49.030;8.714;2023-04-24T00:30:19;5.37;;;1.10;;
7531;SDS011;3807;49.030;8.714;2023-04-24T00:32:44;1.57;;;0.90;;
7531;SDS011;3807;49.030;8.714;2023-04-24T00:35:09;3.47;;;0.93;;
7531;SDS011;3807;49.030;8.714;2023-04-24T00:37:35;1.83;;;0.70;;
7531;SDS011;3807;49.030;8.714;2023-04-24T00:40:00;3.30;;;1.00;;
7531;SDS011;3807;49.030;8.714;2023-04-24T00:42:26;6.50;;;1.00;;
7531;SDS011;3807;49.030;8.714;2023-04-24T00:44:52;0.80;;;0.80;;
7531;SDS011;3807;49.030;8.714;2023-04-24T00:47:18;1.40;;;0.70;;
7531;SDS011;3807;49.030;8.714;2023-04-24T00:49:44;1.30;;;0.90;;
7531;SDS011;3807;49.030;8.714;2023-04-24T00:52:09;1.93;;;0.70;;
7531;SDS011;3807;49.030;8.714;2023-04-24T00:54:35;2.80;;;0.90;;
7531;SDS011;3807;49.030;8.714;2023-04-24T00:57:02;2.10;;;0.97;;
7531;SDS011;3807;49.030;8.714;2023-04-24T00:59:28;2.33;;;0.90;;
7531;SDS011;3807;49.030;8.714;2023-04-24T01:01:54;3.47;;;1.17;;
7531;SDS011;3807;49.030;8.714;2023-04-24T01:04:20;1.60;;;0.83;;
7531;SDS011;3807;49.030;8.714;2023-04-24T01:06:46;2.40;;;1.03;;
7531;SDS011;3807;49.030;8.714;2023-04-24T01:09:12;4.67;;;0.80;;
7531;SDS011;3807;49.030;8.714;2023-04-24T01:11:39;3.63;;;0.80;;
7531;SDS011;3807;49.030;8.714;2023-04-24T01:14:06;2.30;;;0.90;;
7531;SDS011;3807;49.030;8.714;2023-04-24T01:16:32;3.13;;;0.90;;
7531;SDS011;3807;49.030;8.714;2023-04-24T01:18:58;1.43;;;1.00;;
7531;SDS011;3807;49.030;8.714;2023-04-24T01:21:23;1.17;;;0.70;;
7531;SDS011;3807;49.030;8.714;2023-04-24T01:23:52;1.53;;;0.90;;
7531;SDS011;3807;49.030;8.714;2023-04-24T01:26:18;1.37;;;0.77;;
7531;SDS011;3807;49.030;8.714;2023-04-24T01:28:45;3.60;;;1.17;;
7531;SDS011;3807;49.030;8.714;2023-04-24T01:31:11;2.10;;;0.77;;
7531;SDS011;3807;49.030;8.714;2023-04-24T01:33:36;2.20;;;0.90;;
7531;SDS011;3807;49.030;8.714;2023-04-24T01:36:02;1.50;;;0.80;;
7531;SDS011;3807;49.030;8.714;2023-04-24T01:38:28;2.90;;;1.20;;
7531;SDS011;3807;49.030;8.714;2023-04-24T01:40:53;3.67;;;0.90;;
7531;SDS011;3807;49.030;8.714;2023-04-24T01:43:18;2.80;;;0.80;;
7531;SDS011;3807;49.030;8.714;2023-04-24T01:45:44;2.30;;;0.87;;
7531;SDS011;3807;49.030;8.714;2023-04-24T01:48:10;1.43;;;0.90;;
7531;SDS011;3807;49.030;8.714;2023-04-24T01:50:36;0.90;;;0.77;;
7531;SDS011;3807;49.030;8.714;2023-04-24T01:53:02;1.50;;;0.83;;
7531;SDS011;3807;49.030;8.714;2023-04-24T01:55:27;1.50;;;0.80;;
7531;SDS011;3807;49.030;8.714;2023-04-24T01:57:52;4.83;;;0.80;;
7531;SDS011;3807;49.030;8.714;2023-04-24T02:00:20;1.77;;;0.90;;
7531;SDS011;3807;49.030;8.714;2023-04-24T02:02:46;3.77;;;0.90;;
7531;SDS011;3807;49.030;8.714;2023-04-24T02:05:11;2.07;;;0.90;;
7531;SDS011;3807;49.030;8.714;2023-04-24T02:07:37;1.37;;;0.90;;
7531;SDS011;3807;49.030;8.714;2023-04-24T02:10:02;4.90;;;1.17;;
7531;SDS011;3807;49.030;8.714;2023-04-24T02:12:29;1.83;;;0.80;;
7531;SDS011;3807;49.030;8.714;2023-04-24T02:14:54;1.83;;;1.00;;
7531;SDS011;3807;49.030;8.714;2023-04-24T02:17:19;4.57;;;0.80;;
7531;SDS011;3807;49.030;8.714;2023-04-24T02:19:45;1.63;;;0.70;;
7531;SDS011;3807;49.030;8.714;2023-04-24T02:22:11;5.47;;;0.90;;
7531;SDS011;3807;49.030;8.714;2023-04-24T02:24:37;2.10;;;0.93;;
7531;SDS011;3807;49.030;8.714;2023-04-24T02:27:03;1.73;;;0.80;;
7531;SDS011;3807;49.030;8.714;2023-04-24T02:29:28;1.23;;;0.90;;
7531;SDS011;3807;49.030;8.714;2023-04-24T02:31:54;2.87;;;0.80;;
7531;SDS011;3807;49.030;8.714;2023-04-24T02:34:19;2.00;;;0.73;;
7531;SDS011;3807;49.030;8.714;2023-04-24T02:36:45;1.80;;;1.00;;
7531;SDS011;3807;49.030;8.714;2023-04-24T02:39:10;3.23;;;1.00;;
7531;SDS011;3807;49.030;8.714;2023-04-24T02:41:35;3.07;;;0.90;;
7531;SDS011;3807;49.030;8.714;2023-04-24T02:44:01;3.40;;;0.90;;
7531;SDS011;3807;49.030;8.714;2023-04-24T02:46:26;3.40;;;0.80;;
7531;SDS011;3807;49.030;8.714;2023-04-24T02:48:51;2.70;;;1.10;;
7531;SDS011;3807;49.030;8.714;2023-04-24T02:51:17;2.67;;;0.70;;
7531;SDS011;3807;49.030;8.714;2023-04-24T02:53:42;1.40;;;0.83;;
7531;SDS011;3807;49.030;8.714;2023-04-24T02:56:07;1.10;;;0.90;;
7531;SDS011;3807;49.030;8.714;2023-04-24T02:58:33;1.70;;;0.83;;
7531;SDS011;3807;49.030;8.714;2023-04-24T03:00:58;4.20;;;0.80;;
7531;SDS011;3807;49.030;8.714;2023-04-24T03:03:24;1.70;;;0.90;;
7531;SDS011;3807;49.030;8.714;2023-04-24T03:05:50;3.00;;;1.00;;
7531;SDS011;3807;49.030;8.714;2023-04-24T03:08:15;1.63;;;0.70;;
7531;SDS011;3807;49.030;8.714;2023-04-24T03:10:40;1.83;;;0.80;;
7531;SDS011;3807;49.030;8.714;2023-04-24T03:13:06;2.43;;;0.90;;
7531;SDS011;3807;49.030;8.714;2023-04-24T03:15:31;2.53;;;0.93;;
7531;SDS011;3807;49.030;8.714;2023-04-24T03:17:56;3.20;;;0.90;;
7531;SDS011;3807;49.030;8.714;2023-04-24T03:20:22;0.90;;;0.80;;
7531;SDS011;3807;49.030;8.714;2023-04-24T03:22:48;2.23;;;1.07;;
7531;SDS011;3807;49.030;8.714;2023-04-24T03:25:13;0.97;;;0.70;;
7531;SDS011;3807;49.030;8.714;2023-04-24T03:27:38;0.77;;;0.77;;
7531;SDS011;3807;49.030;8.714;2023-04-24T03:30:05;4.50;;;1.27;;
7531;SDS011;3807;49.030;8.714;2023-04-24T03:32:31;1.43;;;0.83;;
7531;SDS011;3807;49.030;8.714;2023-04-24T03:34:57;1.87;;;0.80;;
7531;SDS011;3807;49.030;8.714;2023-04-24T03:37:22;1.50;;;0.80;;
7531;SDS011;3807;49.030;8.714;2023-04-24T03:39:48;0.50;;;0.50;;
7531;SDS011;3807;49.030;8.714;2023-04-24T03:42:13;3.23;;;0.90;;
7531;SDS011;3807;49.030;8.714;2023-04-24T03:44:38;1.50;;;0.73;;
7531;SDS011;3807;49.030;8.714;2023-04-24T03:47:04;1.13;;;0.80;;
7531;SDS011;3807;49.030;8.714;2023-04-24T03:49:29;0.90;;;0.80;;
7531;SDS011;3807;49.030;8.714;2023-04-24T03:51:55;0.80;;;0.80;;
7531;SDS011;3807;49.030;8.714;2023-04-24T03:54:20;1.70;;;0.90;;
7531;SDS011;3807;49.030;8.714;2023-04-24T03:56:45;1.73;;;0.80;;
7531;SDS011;3807;49.030;8.714;2023-04-24T03:59:11;1.17;;;1.07;;
7531;SDS011;3807;49.030;8.714;2023-04-24T04:01:36;1.57;;;1.07;;
7531;SDS011;3807;49.030;8.714;2023-04-24T04:04:03;1.33;;;1.10;;
7531;SDS011;3807;49.030;8.714;2023-04-24T04:06:29;1.80;;;1.17;;
7531;SDS011;3807;49.030;8.714;2023-04-24T04:08:55;2.37;;;1.00;;
7531;SDS011;3807;49.030;8.714;2023-04-24T04:11:21;3.73;;;1.30;;
7531;SDS011;3807;49.030;8.714;2023-04-24T04:13:46;1.73;;;1.07;;
7531;SDS011;3807;49.030;8.714;2023-04-24T04:16:12;1.27;;;1.17;;
7531;SDS011;3807;49.030;8.714;2023-04-24T04:18:38;1.27;;;1.17;;
7531;SDS011;3807;49.030;8.714;2023-04-24T04:21:03;1.07;;;0.80;;
7531;SDS011;3807;49.030;8.714;2023-04-24T04:23:29;0.90;;;0.90;;
7531;SDS011;3807;49.030;8.714;2023-04-24T04:25:55;2.33;;;1.17;;
7531;SDS011;3807;49.030;8.714;2023-04-24T04:28:20;2.63;;;1.10;;
7531;SDS011;3807;49.030;8.714;2023-04-24T04:30:46;2.67;;;1.30;;
7531;SDS011;3807;49.030;8.714;2023-04-24T04:33:12;1.57;;;1.10;;
7531;SDS011;3807;49.030;8.714;2023-04-24T04:35:37;1.30;;;1.20;;
7531;SDS011;3807;49.030;8.714;2023-04-24T04:38:03;1.10;;;1.00;;
7531;SDS011;3807;49.030;8.714;2023-04-24T04:40:29;3.37;;;1.53;;
7531;SDS011;3807;49.030;8.714;2023-04-24T04:42:55;3.63;;;1.20;;
7531;SDS011;3807;49.030;8.714;2023-04-24T04:45:20;1.17;;;1.07;;
7531;SDS011;3807;49.030;8.714;2023-04-24T04:47:46;2.30;;;1.00;;
7531;SDS011;3807;49.030;8.714;2023-04-24T04:50:12;1.37;;;1.20;;
7531;SDS011;3807;49.030;8.714;2023-04-24T04:52:37;1.93;;;1.13;;
7531;SDS011;3807;49.030;8.714;2023-04-24T04:55:03;1.93;;;1.20;;
7531;SDS011;3807;49.030;8.714;2023-04-24T04:57:28;2.90;;;1.27;;
7531;SDS011;3807;49.030;8.714;2023-04-24T04:59:55;2.03;;;1.43;;
7531;SDS011;3807;49.030;8.714;2023-04-24T05:02:20;1.67;;;1.10;;
7531;SDS011;3807;49.030;8.714;2023-04-24T05:04:45;3.57;;;1.30;;
7531;SDS011;3807;49.030;8.714;2023-04-24T05:07:11;2.03;;;1.20;;
7531;SDS011;3807;49.030;8.714;2023-04-24T05:09:36;1.87;;;1.30;;
7531;SDS011;3807;49.030;8.714;2023-04-24T05:12:02;4.80;;;1.60;;
7531;SDS011;3807;49.030;8.714;2023-04-24T05:14:27;1.73;;;1.63;;
7531;SDS011;3807;49.030;8.714;2023-04-24T05:16:53;2.30;;;2.10;;
7531;SDS011;3807;49.030;8.714;2023-04-24T05:19:18;1.90;;;1.67;;
7531;SDS011;3807;49.030;8.714;2023-04-24T05:21:43;2.10;;;1.40;;
7531;SDS011;3807;49.030;8.714;2023-04-24T05:24:09;4.90;;;1.63;;
7531;SDS011;3807;49.030;8.714;2023-04-24T05:26:34;5.67;;;2.13;;
7531;SDS011;3807;49.030;8.714;2023-04-24T05:29:00;1.97;;;1.60;;
7531;SDS011;3807;49.030;8.714;2023-04-24T05:31:26;2.03;;;1.67;;
7531;SDS011;3807;49.030;8.714;2023-04-24T05:33:51;4.20;;;1.53;;
7531;SDS011;3807;49.030;8.714;2023-04-24T05:36:17;2.27;;;2.07;;
7531;SDS011;3807;49.030;8.714;2023-04-24T05:38:42;2.10;;;1.80;;
7531;SDS011;3807;49.030;8.714;2023-04-24T05:41:07;3.30;;;1.40;;
7531;SDS011;3807;49.030;8.714;2023-04-24T05:43:33;4.60;;;2.13;;
7531;SDS011;3807;49.030;8.714;2023-04-24T05:45:58;3.10;;;2.20;;
7531;SDS011;3807;49.030;8.714;2023-04-24T05:48:23;2.20;;;2.00;;
7531;SDS011;3807;49.030;8.714;2023-04-24T05:50:49;2.40;;;1.87;;
7531;SDS011;3807;49.030;8.714;2023-04-24T05:53:15;5.67;;;1.80;;
7531;SDS011;3807;49.030;8.714;2023-04-24T05:55:40;1.60;;;1.27;;
7531;SDS011;3807;49.030;8.714;2023-04-24T05:58:06;2.90;;;1.87;;
7531;SDS011;3807;49.030;8.714;2023-04-24T06:00:31;5.80;;;1.90;;
7531;SDS011;3807;49.030;8.714;2023-04-24T06:02:57;1.87;;;1.63;;
7531;SDS011;3807;49.030;8.714;2023-04-24T06:05:22;4.23;;;2.00;;
7531;SDS011;3807;49.030;8.714;2023-04-24T06:07:48;2.77;;;1.77;;
7531;SDS011;3807;49.030;8.714;2023-04-24T06:10:13;4.67;;;1.80;;
7531;SDS011;3807;49.030;8.714;2023-04-24T06:12:39;2.10;;;1.73;;
7531;SDS011;3807;49.030;8.714;2023-04-24T06:15:04;4.47;;;1.63;;
7531;SDS011;3807;49.030;8.714;2023-04-24T06:17:30;2.80;;;1.63;;
7531;SDS011;3807;49.030;8.714;2023-04-24T06:19:56;1.90;;;1.80;;
7531;SDS011;3807;49.030;8.714;2023-04-24T06:22:21;1.93;;;1.73;;
7531;SDS011;3807;49.030;8.714;2023-04-24T06:24:46;1.90;;;1.30;;
7531;SDS011;3807;49.030;8.714;2023-04-24T06:27:13;2.00;;;1.33;;
7531;SDS011;3807;49.030;8.714;2023-04-24T06:29:38;1.90;;;1.70;;
7531;SDS011;3807;49.030;8.714;2023-04-24T06:32:04;2.77;;;1.70;;
7531;SDS011;3807;49.030;8.714;2023-04-24T06:34:30;3.37;;;1.67;;
7531;SDS011;3807;49.030;8.714;2023-04-24T06:36:55;2.00;;;1.77;;
7531;SDS011;3807;49.030;8.714;2023-04-24T06:39:21;4.07;;;2.20;;
7531;SDS011;3807;49.030;8.714;2023-04-24T06:41:47;1.90;;;1.27;;
7531;SDS011;3807;49.030;8.714;2023-04-24T06:44:12;4.87;;;2.33;;
7531;SDS011;3807;49.030;8.714;2023-04-24T06:46:39;1.97;;;1.47;;
7531;SDS011;3807;49.030;8.714;2023-04-24T06:49:05;1.90;;;1.80;;
7531;SDS011;3807;49.030;8.714;2023-04-24T06:51:31;1.80;;;1.50;;
7531;SDS011;3807;49.030;8.714;2023-04-24T06:53:57;2.70;;;1.70;;
7531;SDS011;3807;49.030;8.714;2023-04-24T06:56:23;1.60;;;1.40;;
7531;SDS011;3807;49.030;8.714;2023-04-24T06:58:49;3.43;;;2.00;;
7531;SDS011;3807;49.030;8.714;2023-04-24T07:01:14;2.33;;;1.80;;
7531;SDS011;3807;49.030;8.714;2023-04-24T07:03:40;4.03;;;1.30;;
7531;SDS011;3807;49.030;8.714;2023-04-24T07:06:05;3.90;;;1.77;;
7531;SDS011;3807;49.030;8.714;2023-04-24T07:08:31;1.70;;;1.30;;
7531;SDS011;3807;49.030;8.714;2023-04-24T07:10:58;3.20;;;1.80;;
7531;SDS011;3807;49.030;8.714;2023-04-24T07:13:24;6.43;;;1.60;;
7531;SDS011;3807;49.030;8.714;2023-04-24T07:15:49;2.60;;;1.60;;
7531;SDS011;3807;49.030;8.714;2023-04-24T07:18:16;2.60;;;1.70;;
7531;SDS011;3807;49.030;8.714;2023-04-24T07:20:42;1.73;;;1.43;;
7531;SDS011;3807;49.030;8.714;2023-04-24T07:23:07;1.93;;;1.40;;
7531;SDS011;3807;49.030;8.714;2023-04-24T07:25:33;1.57;;;1.47;;
7531;SDS011;3807;49.030;8.714;2023-04-24T07:27:58;2.33;;;1.63;;
7531;SDS011;3807;49.030;8.714;2023-04-24T07:30:24;4.63;;;1.80;;
7531;SDS011;3807;49.030;8.714;2023-04-24T07:32:49;2.73;;;1.53;;
7531;SDS011;3807;49.030;8.714;2023-04-24T07:35:15;3.23;;;1.80;;
7531;SDS011;3807;49.030;8.714;2023-04-24T07:37:40;3.13;;;1.40;;
7531;SDS011;3807;49.030;8.714;2023-04-24T07:40:10;1.40;;;1.00;;
7531;SDS011;3807;49.030;8.714;2023-04-24T07:42:37;1.60;;;1.50;;
7531;SDS011;3807;49.030;8.714;2023-04-24T07:45:03;1.30;;;1.00;;
7531;SDS011;3807;49.030;8.714;2023-04-24T07:47:29;3.13;;;1.60;;
7531;SDS011;3807;49.030;8.714;2023-04-24T07:49:55;2.63;;;1.33;;
7531;SDS011;3807;49.030;8.714;2023-04-24T07:52:20;2.93;;;1.60;;
7531;SDS011;3807;49.030;8.714;2023-04-24T07:54:46;2.17;;;1.50;;
7531;SDS011;3807;49.030;8.714;2023-04-24T07:57:11;2.37;;;1.23;;
7531;SDS011;3807;49.030;8.714;2023-04-24T07:59:36;6.00;;;1.53;;
7531;SDS011;3807;49.030;8.714;2023-04-24T08:02:02;3.07;;;1.53;;
7531;SDS011;3807;49.030;8.714;2023-04-24T08:04:27;4.07;;;1.60;;
7531;SDS011;3807;49.030;8.714;2023-04-24T08:06:52;3.60;;;1.10;;
7531;SDS011;3807;49.030;8.714;2023-04-24T08:09:18;2.53;;;1.30;;
7531;SDS011;3807;49.030;8.714;2023-04-24T08:11:43;3.50;;;1.43;;
7531;SDS011;3807;49.030;8.714;2023-04-24T08:14:09;2.70;;;1.20;;
7531;SDS011;3807;49.030;8.714;2023-04-24T08:16:34;4.00;;;1.47;;
7531;SDS011;3807;49.030;8.714;2023-04-24T08:19:00;2.20;;;1.50;;
7531;SDS011;3807;49.030;8.714;2023-04-24T08:21:25;1.93;;;1.10;;
7531;SDS011;3807;49.030;8.714;2023-04-24T08:23:52;2.47;;;0.77;;
7531;SDS011;3807;49.030;8.714;2023-04-24T08:26:17;7.97;;;1.03;;
7531;SDS011;3807;49.030;8.714;2023-04-24T08:28:42;9.27;;;1.30;;
7531;SDS011;3807;49.030;8.714;2023-04-24T08:31:08;1.10;;;1.00;;
7531;SDS011;3807;49.030;8.714;2023-04-24T08:33:33;1.83;;;1.60;;
7531;SDS011;3807;49.030;8.714;2023-04-24T08:36:03;2.77;;;1.50;;
7531;SDS011;3807;49.030;8.714;2023-04-24T08:38:30;1.10;;;1.00;;
7531;SDS011;3807;49.030;8.714;2023-04-24T08:40:59;2.17;;;1.30;;
7531;SDS011;3807;49.030;8.714;2023-04-24T08:43:26;1.33;;;1.10;;
7531;SDS011;3807;49.030;8.714;2023-04-24T08:45:51;1.43;;;1.13;;
7531;SDS011;3807;49.030;8.714;2023-04-24T08:48:18;1.97;;;1.03;;
7531;SDS011;3807;49.030;8.714;2023-04-24T08:50:43;1.57;;;1.20;;
7531;SDS011;3807;49.030;8.714;2023-04-24T08:53:10;4.77;;;1.00;;
7531;SDS011;3807;49.030;8.714;2023-04-24T08:55:36;1.10;;;0.90;;
7531;SDS011;3807;49.030;8.714;2023-04-24T08:58:03;2.13;;;1.53;;
7531;SDS011;3807;49.030;8.714;2023-04-24T09:00:28;1.27;;;1.17;;
7531;SDS011;3807;49.030;8.714;2023-04-24T09:02:54;2.77;;;1.37;;
7531;SDS011;3807;49.030;8.714;2023-04-24T09:05:21;3.37;;;1.30;;
7531;SDS011;3807;49.030;8.714;2023-04-24T09:07:49;1.97;;;1.40;;
7531;SDS011;3807;49.030;8.714;2023-04-24T09:10:18;1.07;;;1.03;;
7531;SDS011;3807;49.030;8.714;2023-04-24T09:12:45;1.20;;;1.10;;
7531;SDS011;3807;49.030;8.714;2023-04-24T09:15:11;3.43;;;1.33;;
7531;SDS011;3807;49.030;8.714;2023-04-24T09:17:37;1.70;;;1.17;;
7531;SDS011;3807;49.030;8.714;2023-04-24T09:20:03;1.10;;;1.00;;
7531;SDS011;3807;49.030;8.714;2023-04-24T09:22:32;1.53;;;1.37;;
7531;SDS011;3807;49.030;8.714;2023-04-24T09:25:02;2.30;;;1.30;;
7531;SDS011;3807;49.030;8.714;2023-04-24T09:27:30;1.47;;;1.00;;
7531;SDS011;3807;49.030;8.714;2023-04-24T09:29:56;4.00;;;1.57;;
7531;SDS011;3807;49.030;8.714;2023-04-24T09:32:22;2.20;;;1.57;;
7531;SDS011;3807;49.030;8.714;2023-04-24T09:35:04;4.43;;;1.53;;
7531;SDS011;3807;49.030;8.714;2023-04-24T09:37:34;2.30;;;1.47;;
7531;SDS011;3807;49.030;8.714;2023-04-24T09:40:07;2.37;;;1.07;;
7531;SDS011;3807;49.030;8.714;2023-04-24T09:42:33;4.10;;;1.83;;
7531;SDS011;3807;49.030;8.714;2023-04-24T09:44:59;1.63;;;1.33;;
7531;SDS011;3807;49.030;8.714;2023-04-24T09:47:24;1.23;;;1.10;;
7531;SDS011;3807;49.030;8.714;2023-04-24T09:49:50;3.53;;;1.10;;
7531;SDS011;3807;49.030;8.714;2023-04-24T09:52:15;2.20;;;1.47;;
7531;SDS011;3807;49.030;8.714;2023-04-24T09:54:40;4.20;;;1.70;;
7531;SDS011;3807;49.030;8.714;2023-04-24T09:57:09;4.33;;;1.70;;
7531;SDS011;3807;49.030;8.714;2023-04-24T09:59:34;2.57;;;1.43;;
7531;SDS011;3807;49.030;8.714;2023-04-24T10:02:00;2.50;;;1.87;;
7531;SDS011;3807;49.030;8.714;2023-04-24T10:04:26;3.60;;;1.87;;
7531;SDS011;3807;49.030;8.714;2023-04-24T10:06:52;1.80;;;1.60;;
7531;SDS011;3807;49.030;8.714;2023-04-24T10:09:20;2.83;;;1.80;;
7531;SDS011;3807;49.030;8.714;2023-04-24T10:11:47;4.10;;;2.57;;
7531;SDS011;3807;49.030;8.714;2023-04-24T10:14:14;2.57;;;1.67;;
7531;SDS011;3807;49.030;8.714;2023-04-24T10:16:41;2.07;;;1.53;;
7531;SDS011;3807;49.030;8.714;2023-04-24T10:19:07;2.30;;;1.53;;
7531;SDS011;3807;49.030;8.714;2023-04-24T10:21:34;2.63;;;1.90;;
7531;SDS011;3807;49.030;8.714;2023-04-24T10:24:00;1.53;;;1.40;;
7531;SDS011;3807;49.030;8.714;2023-04-24T10:26:28;2.27;;;1.33;;
7531;SDS011;3807;49.030;8.714;2023-04-24T10:28:54;2.07;;;1.87;;
7531;SDS011;3807;49.030;8.714;2023-04-24T10:31:22;2.00;;;1.30;;
7531;SDS011;3807;49.030;8.714;2023-04-24T10:33:47;2.00;;;1.70;;
7531;SDS011;3807;49.030;8.714;2023-04-24T10:36:16;2.87;;;1.53;;
7531;SDS011;3807;49.030;8.714;2023-04-24T10:38:42;2.33;;;2.00;;
7531;SDS011;3807;49.030;8.714;2023-04-24T10:41:11;1.97;;;1.67;;
7531;SDS011;3807;49.030;8.714;2023-04-24T10:44:09;3.37;;;1.70;;
7531;SDS011;3807;49.030;8.714;2023-04-24T10:46:35;2.73;;;1.90;;
7531;SDS011;3807;49.030;8.714;2023-04-24T10:49:04;3.00;;;1.50;;
7531;SDS011;3807;49.030;8.714;2023-04-24T10:51:44;2.03;;;1.67;;
7531;SDS011;3807;49.030;8.714;2023-04-24T10:56:51;2.67;;;1.70;;
7531;SDS011;3807;49.030;8.714;2023-04-24T10:59:26;3.63;;;1.97;;
7531;SDS011;3807;49.030;8.714;2023-04-24T11:01:53;4.13;;;1.87;;
7531;SDS011;3807;49.030;8.714;2023-04-24T11:04:29;2.00;;;1.83;;
7531;SDS011;3807;49.030;8.714;2023-04-24T11:06:56;1.17;;;1.07;;
7531;SDS011;3807;49.030;8.714;2023-04-24T11:09:22;3.27;;;2.10;;
7531;SDS011;3807;49.030;8.714;2023-04-24T11:11:50;2.70;;;2.40;;
7531;SDS011;3807;49.030;8.714;2023-04-24T11:14:28;5.90;;;1.90;;
7531;SDS011;3807;49.030;8.714;2023-04-24T11:16:54;2.93;;;1.80;;
7531;SDS011;3807;49.030;8.714;2023-04-24T11:19:24;2.97;;;2.10;;
7531;SDS011;3807;49.030;8.714;2023-04-24T11:21:55;2.87;;;1.97;;
7531;SDS011;3807;49.030;8.714;2023-04-24T11:27:06;1.30;;;1.20;;
7531;SDS011;3807;49.030;8.714;2023-04-24T11:29:40;3.73;;;1.63;;
7531;SDS011;3807;49.030;8.714;2023-04-24T11:34:49;2.43;;;1.30;;
7531;SDS011;3807;49.030;8.714;2023-04-24T11:37:17;2.37;;;2.03;;
7531;SDS011;3807;49.030;8.714;2023-04-24T11:39:42;4.90;;;1.90;;
7531;SDS011;3807;49.030;8.714;2023-04-24T11:42:12;2.47;;;2.00;;
7531;SDS011;3807;49.030;8.714;2023-04-24T11:44:40;2.40;;;1.90;;
7531;SDS011;3807;49.030;8.714;2023-04-24T11:47:07;2.33;;;2.07;;
7531;SDS011;3807;49.030;8.714;2023-04-24T11:49:33;7.73;;;2.33;;
7531;SDS011;3807;49.030;8.714;2023-04-24T11:52:02;3.23;;;2.20;;
7531;SDS011;3807;49.030;8.714;2023-04-24T11:54:27;3.00;;;2.40;;
7531;SDS011;3807;49.030;8.714;2023-04-24T11:56:53;3.27;;;2.43;;
7531;SDS011;3807;49.030;8.714;2023-04-24T11:59:18;3.80;;;2.23;;
7531;SDS011;3807;49.030;8.714;2023-04-24T12:01:47;2.37;;;1.63;;
7531;SDS011;3807;49.030;8.714;2023-04-24T12:04:14;2.33;;;2.07;;
7531;SDS011;3807;49.030;8.714;2023-04-24T12:06:58;6.57;;;3.27;;
7531;SDS011;3807;49.030;8.714;2023-04-24T12:09:25;2.70;;;2.50;;
7531;SDS011;3807;49.030;8.714;2023-04-24T12:11:54;3.77;;;2.67;;
7531;SDS011;3807;49.030;8.714;2023-04-24T12:14:22;3.57;;;2.93;;
7531;SDS011;3807;49.030;8.714;2023-04-24T12:16:48;6.47;;;2.87;;
7531;SDS011;3807;49.030;8.714;2023-04-24T12:19:23;3.57;;;2.57;;
7531;SDS011;3807;49.030;8.714;2023-04-24T12:24:27;2.67;;;2.10;;
7531;SDS011;3807;49.030;8.714;2023-04-24T12:26:52;2.73;;;2.37;;
7531;SDS011;3807;49.030;8.714;2023-04-24T12:29:21;4.33;;;1.97;;
7531;SDS011;3807;49.030;8.714;2023-04-24T12:31:47;3.50;;;2.70;;
7531;SDS011;3807;49.030;8.714;2023-04-24T12:34:19;5.57;;;2.07;;
7531;SDS011;3807;49.030;8.714;2023-04-24T12:36:46;2.50;;;2.27;;
7531;SDS011;3807;49.030;8.714;2023-04-24T12:39:15;2.57;;;2.37;;
7531;SDS011;3807;49.030;8.714;2023-04-24T12:41:55;3.03;;;2.40;;
7531;SDS011;3807;49.030;8.714;2023-04-24T12:46:56;4.47;;;3.07;;
7531;SDS011;3807;49.030;8.714;2023-04-24T12:49:22;3.27;;;2.30;;
7531;SDS011;3807;49.030;8.714;2023-04-24T12:51:47;3.23;;;2.30;;
7531;SDS011;3807;49.030;8.714;2023-04-24T12:54:12;5.83;;;2.67;;
7531;SDS011;3807;49.030;8.714;2023-04-24T12:56:38;3.33;;;2.00;;
7531;SDS011;3807;49.030;8.714;2023-04-24T12:59:04;2.53;;;1.60;;
7531;SDS011;3807;49.030;8.714;2023-04-24T13:01:30;3.67;;;2.37;;
7531;SDS011;3807;49.030;8.714;2023-04-24T13:03:55;4.27;;;2.33;;
7531;SDS011;3807;49.030;8.714;2023-04-24T13:06:21;2.90;;;1.83;;
7531;SDS011;3807;49.030;8.714;2023-04-24T13:08:46;3.27;;;2.03;;
7531;SDS011;3807;49.030;8.714;2023-04-24T13:11:12;4.27;;;1.97;;
7531;SDS011;3807;49.030;8.714;2023-04-24T13:13:38;4.13;;;2.00;;
7531;SDS011;3807;49.030;8.714;2023-04-24T13:16:03;3.40;;;2.27;;
7531;SDS011;3807;49.030;8.714;2023-04-24T13:18:29;5.30;;;2.40;;
7531;SDS011;3807;49.030;8.714;2023-04-24T13:20:54;2.63;;;2.27;;
7531;SDS011;3807;49.030;8.714;2023-04-24T13:23:20;4.33;;;2.60;;
7531;SDS011;3807;49.030;8.714;2023-04-24T13:25:46;3.23;;;2.10;;
7531;SDS011;3807;49.030;8.714;2023-04-24T13:28:12;6.20;;;2.50;;
7531;SDS011;3807;49.030;8.714;2023-04-24T13:30:37;4.43;;;2.23;;
7531;SDS011;3807;49.030;8.714;2023-04-24T13:33:03;3.30;;;2.40;;
7531;SDS011;3807;49.030;8.714;2023-04-24T13:35:28;2.30;;;2.10;;
7531;SDS011;3807;49.030;8.714;2023-04-24T13:37:54;2.30;;;1.70;;
7531;SDS011;3807;49.030;8.714;2023-04-24T13:40:19;3.37;;;2.50;;
7531;SDS011;3807;49.030;8.714;2023-04-24T13:42:44;5.07;;;2.60;;
7531;SDS011;3807;49.030;8.714;2023-04-24T13:45:10;3.10;;;2.43;;
7531;SDS011;3807;49.030;8.714;2023-04-24T13:47:35;5.60;;;2.50;;
7531;SDS011;3807;49.030;8.714;2023-04-24T13:50:01;2.83;;;2.20;;
7531;SDS011;3807;49.030;8.714;2023-04-24T13:52:27;3.20;;;2.30;;
7531;SDS011;3807;49.030;8.714;2023-04-24T13:54:52;4.00;;;2.40;;
7531;SDS011;3807;49.030;8.714;2023-04-24T13:57:17;6.67;;;3.57;;
7531;SDS011;3807;49.030;8.714;2023-04-24T13:59:43;5.57;;;2.00;;
7531;SDS011;3807;49.030;8.714;2023-04-24T14:02:08;4.23;;;2.40;;
7531;SDS011;3807;49.030;8.714;2023-04-24T14:04:33;4.77;;;2.30;;
7531;SDS011;3807;49.030;8.714;2023-04-24T14:06:59;2.90;;;2.13;;
7531;SDS011;3807;49.030;8.714;2023-04-24T14:09:24;2.20;;;2.00;;
7531;SDS011;3807;49.030;8.714;2023-04-24T14:11:51;3.07;;;2.23;;
7531;SDS011;3807;49.030;8.714;2023-04-24T14:14:16;4.63;;;2.60;;
7531;SDS011;3807;49.030;8.714;2023-04-24T14:16:42;2.37;;;1.80;;
7531;SDS011;3807;49.030;8.714;2023-04-24T14:19:07;4.77;;;3.07;;
7531;SDS011;3807;49.030;8.714;2023-04-24T14:21:33;3.83;;;2.20;;
7531;SDS011;3807;49.030;8.714;2023-04-24T14:23:58;3.07;;;1.97;;
7531;SDS011;3807;49.030;8.714;2023-04-24T14:26:24;4.33;;;2.70;;
7531;SDS011;3807;49.030;8.714;2023-04-24T14:28:50;3.17;;;2.70;;
7531;SDS011;3807;49.030;8.714;2023-04-24T14:31:15;2.83;;;1.57;;
7531;SDS011;3807;49.030;8.714;2023-04-24T14:33:41;3.33;;;1.87;;
7531;SDS011;3807;49.030;8.714;2023-04-24T14:36:06;4.57;;;1.97;;
7531;SDS011;3807;49.030;8.714;2023-04-24T14:38:32;4.17;;;2.50;;
7531;SDS011;3807;49.030;8.714;2023-04-24T14:40:57;2.73;;;2.00;;
7531;SDS011;3807;49.030;8.714;2023-04-24T14:43:22;3.43;;;2.00;;
7531;SDS011;3807;49.030;8.714;2023-04-24T14:45:48;2.80;;;2.30;;
7531;SDS011;3807;49.030;8.714;2023-04-24T14:48:13;2.67;;;1.90;;
7531;SDS011;3807;49.030;8.714;2023-04-24T14:50:39;3.43;;;2.20;;
7531;SDS011;3807;49.030;8.714;2023-04-24T14:53:04;2.60;;;2.20;;
7531;SDS011;3807;49.030;8.714;2023-04-24T14:55:30;3.20;;;2.40;;
7531;SDS011;3807;49.030;8.714;2023-04-24T14:57:55;3.73;;;1.60;;
7531;SDS011;3807;49.030;8.714;2023-04-24T15:00:21;2.17;;;1.73;;
7531;SDS011;3807;49.030;8.714;2023-04-24T15:02:48;2.50;;;1.93;;
7531;SDS011;3807;49.030;8.714;2023-04-24T15:05:13;1.83;;;1.60;;
7531;SDS011;3807;49.030;8.714;2023-04-24T15:07:39;2.37;;;1.77;;
7531;SDS011;3807;49.030;8.714;2023-04-24T15:10:06;2.67;;;1.97;;
7531;SDS011;3807;49.030;8.714;2023-04-24T15:12:32;3.37;;;1.90;;
7531;SDS011;3807;49.030;8.714;2023-04-24T15:14:58;1.83;;;1.47;;
7531;SDS011;3807;49.030;8.714;2023-04-24T15:17:24;1.43;;;1.30;;
7531;SDS011;3807;49.030;8.714;2023-04-24T15:19:49;1.40;;;1.20;;
7531;SDS011;3807;49.030;8.714;2023-04-24T15:22:15;2.33;;;1.90;;